sensor_id;sensor_type;location;lat;lon;timestamp;temperature;humidity
65637;DHT22;52327;42.622;23.316;2024-03-06T00:02:24;6.72;76.69
65637;DHT22;52327;42.622;23.316;2024-03-06T00:04:49;6.63;77.08
65637;DHT22;52327;42.622;23.316;2024-03-06T00:07:14;6.50;75.84
65637;DHT22;52327;42.622;23.316;2024-03-06T00:09:40;6.48;76.39
65637;DHT22;52327;42.622;23.316;2024-03-06T00:12:05;6.38;76.91
65637;DHT22;52327;42.622;23.316;2024-03-06T00:14:34;6.26;77.54
65637;DHT22;52327;42.622;23.316;2024-03-06T00:17:01;6.35;77.42
65637;DHT22;52327;42.622;23.316;2024-03-06T00:19:30;6.32;76.60
65637;DHT22;52327;42.622;23.316;2024-03-06T00:21:55;6.46;74.74
65637;DHT22;52327;42.622;23.316;2024-03-06T00:24:21;6.29;77.05
65637;DHT22;52327;42.622;23.316;2024-03-06T00:26:48;6.18;77.13
65637;DHT22;52327;42.622;23.316;2024-03-06T00:29:14;6.26;76.67
65637;DHT22;52327;42.622;23.316;2024-03-06T00:31:46;6.25;75.43
65637;DHT22;52327;42.622;23.316;2024-03-06T00:34:12;6.15;76.49
65637;DHT22;52327;42.622;23.316;2024-03-06T00:36:43;6.11;76.64
65637;DHT22;52327;42.622;23.316;2024-03-06T00:39:11;6.08;77.17
65637;DHT22;52327;42.622;23.316;2024-03-06T00:41:40;6.14;76.73
65637;DHT22;52327;42.622;23.316;2024-03-06T00:44:07;6.10;77.44
65637;DHT22;52327;42.622;23.316;2024-03-06T00:46:33;6.00;77.13
65637;DHT22;52327;42.622;23.316;2024-03-06T00:48:58;5.63;77.76
65637;DHT22;52327;42.622;23.316;2024-03-06T00:51:24;5.60;79.01
65637;DHT22;52327;42.622;23.316;2024-03-06T00:53:49;5.61;78.78
65637;DHT22;52327;42.622;23.316;2024-03-06T00:56:15;5.73;78.91
65637;DHT22;52327;42.622;23.316;2024-03-06T00:58:40;5.78;78.48
65637;DHT22;52327;42.622;23.316;2024-03-06T01:01:06;5.88;78.54
65637;DHT22;52327;42.622;23.316;2024-03-06T01:03:31;6.00;78.14
65637;DHT22;52327;42.622;23.316;2024-03-06T01:05:57;6.10;77.83
65637;DHT22;52327;42.622;23.316;2024-03-06T01:08:23;6.15;78.07
65637;DHT22;52327;42.622;23.316;2024-03-06T01:10:50;6.33;77.69
65637;DHT22;52327;42.622;23.316;2024-03-06T01:13:17;6.52;76.77
65637;DHT22;52327;42.622;23.316;2024-03-06T01:15:42;6.68;76.28
65637;DHT22;52327;42.622;23.316;2024-03-06T01:18:08;6.68;75.92
65637;DHT22;52327;42.622;23.316;2024-03-06T01:20:34;6.68;76.30
65637;DHT22;52327;42.622;23.316;2024-03-06T01:22:59;6.76;76.24
65637;DHT22;52327;42.622;23.316;2024-03-06T01:25:25;6.73;75.91
65637;DHT22;52327;42.622;23.316;2024-03-06T01:27:50;6.75;76.25
65637;DHT22;52327;42.622;23.316;2024-03-06T01:30:16;6.80;76.10
65637;DHT22;52327;42.622;23.316;2024-03-06T01:32:41;6.75;76.28
65637;DHT22;52327;42.622;23.316;2024-03-06T01:35:07;6.76;76.30
65637;DHT22;52327;42.622;23.316;2024-03-06T01:37:32;6.66;76.08
65637;DHT22;52327;42.622;23.316;2024-03-06T01:39:58;6.72;75.65
65637;DHT22;52327;42.622;23.316;2024-03-06T01:42:23;6.61;76.05
65637;DHT22;52327;42.622;23.316;2024-03-06T01:44:49;6.55;76.58
65637;DHT22;52327;42.622;23.316;2024-03-06T01:47:15;6.49;76.33
65637;DHT22;52327;42.622;23.316;2024-03-06T01:49:41;6.41;76.97
65637;DHT22;52327;42.622;23.316;2024-03-06T01:52:09;6.35;77.03
65637;DHT22;52327;42.622;23.316;2024-03-06T01:54:37;6.28;77.12
65637;DHT22;52327;42.622;23.316;2024-03-06T01:57:04;6.38;76.56
65637;DHT22;52327;42.622;23.316;2024-03-06T01:59:33;6.28;76.77
65637;DHT22;52327;42.622;23.316;2024-03-06T02:01:58;6.14;76.98
65637;DHT22;52327;42.622;23.316;2024-03-06T02:04:27;6.12;76.45
65637;DHT22;52327;42.622;23.316;2024-03-06T02:06:56;6.05;77.34
65637;DHT22;52327;42.622;23.316;2024-03-06T02:09:23;6.17;76.87
65637;DHT22;52327;42.622;23.316;2024-03-06T02:11:49;6.08;77.17
65637;DHT22;52327;42.622;23.316;2024-03-06T02:14:15;6.07;76.84
65637;DHT22;52327;42.622;23.316;2024-03-06T02:16:43;6.04;76.79
65637;DHT22;52327;42.622;23.316;2024-03-06T02:19:09;6.08;76.94
65637;DHT22;52327;42.622;23.316;2024-03-06T02:21:34;6.10;76.22
65637;DHT22;52327;42.622;23.316;2024-03-06T02:24:00;6.04;76.56
65637;DHT22;52327;42.622;23.316;2024-03-06T02:26:26;6.07;75.75
65637;DHT22;52327;42.622;23.316;2024-03-06T02:28:54;6.00;76.09
65637;DHT22;52327;42.622;23.316;2024-03-06T02:31:21;6.10;74.84
65637;DHT22;52327;42.622;23.316;2024-03-06T02:33:47;6.04;75.36
65637;DHT22;52327;42.622;23.316;2024-03-06T02:36:16;5.97;76.06
65637;DHT22;52327;42.622;23.316;2024-03-06T02:38:43;6.05;74.96
65637;DHT22;52327;42.622;23.316;2024-03-06T02:41:11;6.02;75.36
65637;DHT22;52327;42.622;23.316;2024-03-06T02:43:39;6.00;75.72
65637;DHT22;52327;42.622;23.316;2024-03-06T02:46:07;5.93;75.23
65637;DHT22;52327;42.622;23.316;2024-03-06T02:48:33;5.67;75.41
65637;DHT22;52327;42.622;23.316;2024-03-06T02:50:59;5.20;78.02
65637;DHT22;52327;42.622;23.316;2024-03-06T02:53:24;5.29;78.15
65637;DHT22;52327;42.622;23.316;2024-03-06T02:55:53;5.32;78.36
65637;DHT22;52327;42.622;23.316;2024-03-06T02:58:18;5.44;78.54
65637;DHT22;52327;42.622;23.316;2024-03-06T03:00:49;5.51;77.73
65637;DHT22;52327;42.622;23.316;2024-03-06T03:03:14;5.51;77.88
65637;DHT22;52327;42.622;23.316;2024-03-06T03:05:41;5.53;78.05
65637;DHT22;52327;42.622;23.316;2024-03-06T03:08:06;5.54;77.93
65637;DHT22;52327;42.622;23.316;2024-03-06T03:10:34;5.53;77.91
65637;DHT22;52327;42.622;23.316;2024-03-06T03:13:03;5.44;77.61
65637;DHT22;52327;42.622;23.316;2024-03-06T03:15:30;5.38;77.63
65637;DHT22;52327;42.622;23.316;2024-03-06T03:17:55;5.32;77.64
65637;DHT22;52327;42.622;23.316;2024-03-06T03:20:23;5.38;77.02
65637;DHT22;52327;42.622;23.316;2024-03-06T03:22:48;5.42;76.24
65637;DHT22;52327;42.622;23.316;2024-03-06T03:25:14;5.33;77.11
65637;DHT22;52327;42.622;23.316;2024-03-06T03:27:40;5.23;77.85
65637;DHT22;52327;42.622;23.316;2024-03-06T03:30:10;5.12;77.93
65637;DHT22;52327;42.622;23.316;2024-03-06T03:32:36;5.04;78.15
65637;DHT22;52327;42.622;23.316;2024-03-06T03:35:05;4.92;78.75
65637;DHT22;52327;42.622;23.316;2024-03-06T03:37:31;4.95;78.73
65637;DHT22;52327;42.622;23.316;2024-03-06T03:39:56;4.95;79.08
65637;DHT22;52327;42.622;23.316;2024-03-06T03:42:21;4.95;78.65
65637;DHT22;52327;42.622;23.316;2024-03-06T03:44:50;4.91;78.45
65637;DHT22;52327;42.622;23.316;2024-03-06T03:47:15;4.81;78.42
65637;DHT22;52327;42.622;23.316;2024-03-06T03:49:40;4.77;78.97
65637;DHT22;52327;42.622;23.316;2024-03-06T03:52:08;4.81;79.00
65637;DHT22;52327;42.622;23.316;2024-03-06T03:54:33;4.89;78.84
65637;DHT22;52327;42.622;23.316;2024-03-06T03:57:00;4.87;78.85
65637;DHT22;52327;42.622;23.316;2024-03-06T03:59:25;4.84;78.81
65637;DHT22;52327;42.622;23.316;2024-03-06T04:01:51;4.82;78.92
65637;DHT22;52327;42.622;23.316;2024-03-06T04:04:16;4.85;79.22
65637;DHT22;52327;42.622;23.316;2024-03-06T04:06:45;4.85;79.29
65637;DHT22;52327;42.622;23.316;2024-03-06T04:09:11;4.95;78.28
65637;DHT22;52327;42.622;23.316;2024-03-06T04:11:37;5.09;76.83
65637;DHT22;52327;42.622;23.316;2024-03-06T04:14:03;4.99;78.55
65637;DHT22;52327;42.622;23.316;2024-03-06T04:16:29;4.96;78.91
65637;DHT22;52327;42.622;23.316;2024-03-06T04:18:54;4.96;78.75
65637;DHT22;52327;42.622;23.316;2024-03-06T04:21:20;4.98;78.39
65637;DHT22;52327;42.622;23.316;2024-03-06T04:23:45;4.96;78.66
65637;DHT22;52327;42.622;23.316;2024-03-06T04:26:11;5.11;77.64
65637;DHT22;52327;42.622;23.316;2024-03-06T04:28:37;5.06;77.29
65637;DHT22;52327;42.622;23.316;2024-03-06T04:31:02;4.96;78.49
65637;DHT22;52327;42.622;23.316;2024-03-06T04:33:27;4.81;78.94
65637;DHT22;52327;42.622;23.316;2024-03-06T04:35:53;4.74;79.30
65637;DHT22;52327;42.622;23.316;2024-03-06T04:38:18;4.64;79.44
65637;DHT22;52327;42.622;23.316;2024-03-06T04:40:44;4.69;79.55
65637;DHT22;52327;42.622;23.316;2024-03-06T04:43:10;4.69;79.21
65637;DHT22;52327;42.622;23.316;2024-03-06T04:45:36;4.67;79.11
65637;DHT22;52327;42.622;23.316;2024-03-06T04:48:01;4.61;79.70
65637;DHT22;52327;42.622;23.316;2024-03-06T04:50:27;4.61;79.76
65637;DHT22;52327;42.622;23.316;2024-03-06T04:52:52;4.64;79.42
65637;DHT22;52327;42.622;23.316;2024-03-06T04:55:21;4.61;79.63
65637;DHT22;52327;42.622;23.316;2024-03-06T04:57:48;4.60;79.85
65637;DHT22;52327;42.622;23.316;2024-03-06T05:00:14;4.67;79.54
65637;DHT22;52327;42.622;23.316;2024-03-06T05:02:40;4.68;79.28
65637;DHT22;52327;42.622;23.316;2024-03-06T05:05:07;4.74;79.33
65637;DHT22;52327;42.622;23.316;2024-03-06T05:07:36;4.74;79.57
65637;DHT22;52327;42.622;23.316;2024-03-06T05:10:01;4.85;79.33
65637;DHT22;52327;42.622;23.316;2024-03-06T05:12:27;5.00;78.83
65637;DHT22;52327;42.622;23.316;2024-03-06T05:14:54;5.08;78.80
65637;DHT22;52327;42.622;23.316;2024-03-06T05:17:20;5.11;78.74
65637;DHT22;52327;42.622;23.316;2024-03-06T05:19:49;5.09;79.05
65637;DHT22;52327;42.622;23.316;2024-03-06T05:22:15;5.09;79.11
65637;DHT22;52327;42.622;23.316;2024-03-06T05:24:42;5.15;78.69
65637;DHT22;52327;42.622;23.316;2024-03-06T05:27:08;5.33;78.41
65637;DHT22;52327;42.622;23.316;2024-03-06T05:29:35;5.33;78.60
65637;DHT22;52327;42.622;23.316;2024-03-06T05:32:01;5.35;78.96
65637;DHT22;52327;42.622;23.316;2024-03-06T05:34:27;5.43;78.81
65637;DHT22;52327;42.622;23.316;2024-03-06T05:36:52;5.57;78.65
65637;DHT22;52327;42.622;23.316;2024-03-06T05:39:18;5.66;78.34
65637;DHT22;52327;42.622;23.316;2024-03-06T05:41:43;5.80;78.40
65637;DHT22;52327;42.622;23.316;2024-03-06T05:44:09;5.83;78.10
65637;DHT22;52327;42.622;23.316;2024-03-06T05:46:34;5.90;77.97
65637;DHT22;52327;42.622;23.316;2024-03-06T05:49:01;5.94;78.33
65637;DHT22;52327;42.622;23.316;2024-03-06T05:51:27;5.95;78.77
65637;DHT22;52327;42.622;23.316;2024-03-06T05:53:53;6.18;78.47
65637;DHT22;52327;42.622;23.316;2024-03-06T05:56:18;6.45;77.56
65637;DHT22;52327;42.622;23.316;2024-03-06T05:58:44;6.53;77.55
65637;DHT22;52327;42.622;23.316;2024-03-06T06:01:15;6.63;77.46
65637;DHT22;52327;42.622;23.316;2024-03-06T06:03:41;6.72;77.38
65637;DHT22;52327;42.622;23.316;2024-03-06T06:06:06;6.77;77.38
65637;DHT22;52327;42.622;23.316;2024-03-06T06:08:33;6.89;77.34
65637;DHT22;52327;42.622;23.316;2024-03-06T06:11:00;6.93;76.91
65637;DHT22;52327;42.622;23.316;2024-03-06T06:13:25;6.96;76.47
65637;DHT22;52327;42.622;23.316;2024-03-06T06:15:50;6.84;77.36
65637;DHT22;52327;42.622;23.316;2024-03-06T06:18:16;6.73;77.65
65637;DHT22;52327;42.622;23.316;2024-03-06T06:20:41;6.87;77.46
65637;DHT22;52327;42.622;23.316;2024-03-06T06:23:08;7.13;77.25
65637;DHT22;52327;42.622;23.316;2024-03-06T06:25:34;7.24;76.31
65637;DHT22;52327;42.622;23.316;2024-03-06T06:27:59;7.44;75.95
65637;DHT22;52327;42.622;23.316;2024-03-06T06:30:24;7.59;75.88
65637;DHT22;52327;42.622;23.316;2024-03-06T06:32:50;7.76;75.48
65637;DHT22;52327;42.622;23.316;2024-03-06T06:35:15;7.69;74.77
65637;DHT22;52327;42.622;23.316;2024-03-06T06:37:41;7.75;75.34
65637;DHT22;52327;42.622;23.316;2024-03-06T06:40:07;7.76;75.29
65637;DHT22;52327;42.622;23.316;2024-03-06T06:42:33;7.79;75.27
65637;DHT22;52327;42.622;23.316;2024-03-06T06:44:59;7.76;75.09
65637;DHT22;52327;42.622;23.316;2024-03-06T06:47:26;7.85;75.25
65637;DHT22;52327;42.622;23.316;2024-03-06T06:49:52;7.93;74.86
65637;DHT22;52327;42.622;23.316;2024-03-06T06:52:17;7.71;75.20
65637;DHT22;52327;42.622;23.316;2024-03-06T06:54:43;7.78;75.51
65637;DHT22;52327;42.622;23.316;2024-03-06T06:57:09;7.85;75.60
65637;DHT22;52327;42.622;23.316;2024-03-06T06:59:34;7.97;75.42
65637;DHT22;52327;42.622;23.316;2024-03-06T07:02:01;8.09;75.08
65637;DHT22;52327;42.622;23.316;2024-03-06T07:04:27;8.12;74.93
65637;DHT22;52327;42.622;23.316;2024-03-06T07:06:52;8.06;74.54
65637;DHT22;52327;42.622;23.316;2024-03-06T07:09:19;8.17;74.98
65637;DHT22;52327;42.622;23.316;2024-03-06T07:11:44;8.29;74.67
65637;DHT22;52327;42.622;23.316;2024-03-06T07:14:11;8.27;74.64
65637;DHT22;52327;42.622;23.316;2024-03-06T07:16:43;8.10;74.23
65637;DHT22;52327;42.622;23.316;2024-03-06T07:19:09;8.09;74.62
65637;DHT22;52327;42.622;23.316;2024-03-06T07:21:34;7.97;74.59
65637;DHT22;52327;42.622;23.316;2024-03-06T07:24:00;7.92;75.15
65637;DHT22;52327;42.622;23.316;2024-03-06T07:26:25;7.65;75.50
65637;DHT22;52327;42.622;23.316;2024-03-06T07:28:51;7.62;74.57
65637;DHT22;52327;42.622;23.316;2024-03-06T07:31:17;7.64;75.41
65637;DHT22;52327;42.622;23.316;2024-03-06T07:33:43;7.78;74.40
65637;DHT22;52327;42.622;23.316;2024-03-06T07:36:09;7.90;74.56
65637;DHT22;52327;42.622;23.316;2024-03-06T07:38:34;7.82;74.11
65637;DHT22;52327;42.622;23.316;2024-03-06T07:40:59;7.81;74.25
65637;DHT22;52327;42.622;23.316;2024-03-06T07:43:25;7.92;74.32
65637;DHT22;52327;42.622;23.316;2024-03-06T07:45:52;7.99;74.04
65637;DHT22;52327;42.622;23.316;2024-03-06T07:48:17;8.20;73.74
65637;DHT22;52327;42.622;23.316;2024-03-06T07:50:42;8.29;72.84
65637;DHT22;52327;42.622;23.316;2024-03-06T07:53:08;8.38;72.96
65637;DHT22;52327;42.622;23.316;2024-03-06T07:55:33;8.33;72.72
65637;DHT22;52327;42.622;23.316;2024-03-06T07:57:58;8.33;72.84
65637;DHT22;52327;42.622;23.316;2024-03-06T08:00:24;8.51;73.13
65637;DHT22;52327;42.622;23.316;2024-03-06T08:02:49;8.75;72.31
65637;DHT22;52327;42.622;23.316;2024-03-06T08:05:18;8.91;71.98
65637;DHT22;52327;42.622;23.316;2024-03-06T08:07:43;9.08;71.96
65637;DHT22;52327;42.622;23.316;2024-03-06T08:10:11;9.12;71.33
65637;DHT22;52327;42.622;23.316;2024-03-06T08:12:42;8.89;70.77
65637;DHT22;52327;42.622;23.316;2024-03-06T08:15:10;9.04;71.03
65637;DHT22;52327;42.622;23.316;2024-03-06T08:17:38;9.01;71.43
65637;DHT22;52327;42.622;23.316;2024-03-06T08:20:04;9.23;70.84
65637;DHT22;52327;42.622;23.316;2024-03-06T08:22:34;9.26;69.80
65637;DHT22;52327;42.622;23.316;2024-03-06T08:25:07;9.19;70.52
65637;DHT22;52327;42.622;23.316;2024-03-06T08:27:34;9.12;70.42
65637;DHT22;52327;42.622;23.316;2024-03-06T08:30:00;8.95;70.66
65637;DHT22;52327;42.622;23.316;2024-03-06T08:32:25;8.97;70.64
65637;DHT22;52327;42.622;23.316;2024-03-06T08:34:51;8.78;70.30
65637;DHT22;52327;42.622;23.316;2024-03-06T08:37:16;8.89;71.16
65637;DHT22;52327;42.622;23.316;2024-03-06T08:39:41;9.09;70.72
65637;DHT22;52327;42.622;23.316;2024-03-06T08:42:07;9.26;70.12
65637;DHT22;52327;42.622;23.316;2024-03-06T08:44:33;9.40;69.50
65637;DHT22;52327;42.622;23.316;2024-03-06T08:46:59;9.36;69.43
65637;DHT22;52327;42.622;23.316;2024-03-06T08:49:24;9.49;69.64
65637;DHT22;52327;42.622;23.316;2024-03-06T08:51:50;9.47;68.56
65637;DHT22;52327;42.622;23.316;2024-03-06T08:54:15;9.29;68.31
65637;DHT22;52327;42.622;23.316;2024-03-06T08:56:43;9.16;69.27
65637;DHT22;52327;42.622;23.316;2024-03-06T08:59:09;8.95;69.63
65637;DHT22;52327;42.622;23.316;2024-03-06T09:01:34;9.01;70.16
65637;DHT22;52327;42.622;23.316;2024-03-06T09:04:00;9.08;69.27
65637;DHT22;52327;42.622;23.316;2024-03-06T09:06:25;9.26;69.08
65637;DHT22;52327;42.622;23.316;2024-03-06T09:08:50;9.40;68.43
65637;DHT22;52327;42.622;23.316;2024-03-06T09:11:16;9.38;67.97
65637;DHT22;52327;42.622;23.316;2024-03-06T09:13:41;9.63;67.10
65637;DHT22;52327;42.622;23.316;2024-03-06T09:16:07;9.73;67.12
65637;DHT22;52327;42.622;23.316;2024-03-06T09:18:32;9.83;67.01
65637;DHT22;52327;42.622;23.316;2024-03-06T09:20:57;9.47;67.16
65637;DHT22;52327;42.622;23.316;2024-03-06T09:23:23;9.53;67.15
65637;DHT22;52327;42.622;23.316;2024-03-06T09:25:48;9.56;67.23
65637;DHT22;52327;42.622;23.316;2024-03-06T09:28:14;9.69;66.28
65637;DHT22;52327;42.622;23.316;2024-03-06T09:30:40;9.81;65.96
65637;DHT22;52327;42.622;23.316;2024-03-06T09:33:07;9.95;65.80
65637;DHT22;52327;42.622;23.316;2024-03-06T09:35:32;10.00;65.69
65637;DHT22;52327;42.622;23.316;2024-03-06T09:37:58;10.34;65.48
65637;DHT22;52327;42.622;23.316;2024-03-06T09:40:23;10.55;64.28
65637;DHT22;52327;42.622;23.316;2024-03-06T09:42:50;10.48;64.80
65637;DHT22;52327;42.622;23.316;2024-03-06T09:45:16;10.89;64.29
65637;DHT22;52327;42.622;23.316;2024-03-06T09:47:43;11.14;62.58
65637;DHT22;52327;42.622;23.316;2024-03-06T09:50:09;10.95;62.14
65637;DHT22;52327;42.622;23.316;2024-03-06T09:52:36;11.02;62.64
65637;DHT22;52327;42.622;23.316;2024-03-06T09:55:01;11.24;61.64
65637;DHT22;52327;42.622;23.316;2024-03-06T09:57:27;10.69;62.90
65637;DHT22;52327;42.622;23.316;2024-03-06T09:59:53;10.80;62.45
65637;DHT22;52327;42.622;23.316;2024-03-06T10:02:46;10.68;62.19
65637;DHT22;52327;42.622;23.316;2024-03-06T10:05:23;10.88;62.22
65637;DHT22;52327;42.622;23.316;2024-03-06T10:07:52;11.14;62.08
65637;DHT22;52327;42.622;23.316;2024-03-06T10:10:21;10.82;61.60
65637;DHT22;52327;42.622;23.316;2024-03-06T10:12:48;10.85;62.22
65637;DHT22;52327;42.622;23.316;2024-03-06T10:15:14;11.04;62.03
65637;DHT22;52327;42.622;23.316;2024-03-06T10:17:40;11.17;61.83
65637;DHT22;52327;42.622;23.316;2024-03-06T10:20:35;11.28;61.50
65637;DHT22;52327;42.622;23.316;2024-03-06T10:23:01;11.58;61.21
65637;DHT22;52327;42.622;23.316;2024-03-06T10:25:26;11.20;61.54
65637;DHT22;52327;42.622;23.316;2024-03-06T10:28:09;11.34;61.62
65637;DHT22;52327;42.622;23.316;2024-03-06T10:30:36;11.54;61.54
65637;DHT22;52327;42.622;23.316;2024-03-06T10:33:05;11.40;60.13
65637;DHT22;52327;42.622;23.316;2024-03-06T10:35:42;10.99;60.80
65637;DHT22;52327;42.622;23.316;2024-03-06T10:38:09;10.72;61.19
65637;DHT22;52327;42.622;23.316;2024-03-06T10:40:41;11.04;61.62
65637;DHT22;52327;42.622;23.316;2024-03-06T10:43:07;11.36;59.82
65637;DHT22;52327;42.622;23.316;2024-03-06T10:45:47;11.71;59.53
65637;DHT22;52327;42.622;23.316;2024-03-06T10:48:13;12.09;58.27
65637;DHT22;52327;42.622;23.316;2024-03-06T10:50:40;11.98;56.97
65637;DHT22;52327;42.622;23.316;2024-03-06T10:53:13;11.82;57.34
65637;DHT22;52327;42.622;23.316;2024-03-06T10:55:40;11.50;57.33
65637;DHT22;52327;42.622;23.316;2024-03-06T10:58:09;11.71;57.34
65637;DHT22;52327;42.622;23.316;2024-03-06T11:00:37;12.04;55.99
65637;DHT22;52327;42.622;23.316;2024-03-06T11:03:07;12.12;55.04
65637;DHT22;52327;42.622;23.316;2024-03-06T11:05:36;12.14;54.75
65637;DHT22;52327;42.622;23.316;2024-03-06T11:08:08;12.32;53.14
65637;DHT22;52327;42.622;23.316;2024-03-06T11:10:35;12.02;54.83
65637;DHT22;52327;42.622;23.316;2024-03-06T11:13:01;11.85;54.32
65637;DHT22;52327;42.622;23.316;2024-03-06T11:15:28;12.05;54.69
65637;DHT22;52327;42.622;23.316;2024-03-06T11:17:55;12.25;55.22
65637;DHT22;52327;42.622;23.316;2024-03-06T11:20:21;11.99;53.57
65637;DHT22;52327;42.622;23.316;2024-03-06T11:33:23;12.45;52.64
65637;DHT22;52327;42.622;23.316;2024-03-06T11:36:25;12.84;50.80
65637;DHT22;52327;42.622;23.316;2024-03-06T11:39:02;12.86;49.62
65637;DHT22;52327;42.622;23.316;2024-03-06T11:44:21;12.84;50.24
65637;DHT22;52327;42.622;23.316;2024-03-06T11:46:58;13.03;50.07
65637;DHT22;52327;42.622;23.316;2024-03-06T11:49:30;13.25;50.06
65637;DHT22;52327;42.622;23.316;2024-03-06T11:52:03;13.34;49.94
65637;DHT22;52327;42.622;23.316;2024-03-06T11:54:31;13.44;48.99
65637;DHT22;52327;42.622;23.316;2024-03-06T11:56:59;13.58;49.07
65637;DHT22;52327;42.622;23.316;2024-03-06T11:59:43;13.54;49.46
65637;DHT22;52327;42.622;23.316;2024-03-06T12:02:09;13.59;48.59
65637;DHT22;52327;42.622;23.316;2024-03-06T12:04:36;13.65;49.51
65637;DHT22;52327;42.622;23.316;2024-03-06T12:07:05;13.80;48.73
65637;DHT22;52327;42.622;23.316;2024-03-06T12:09:36;13.99;47.47
65637;DHT22;52327;42.622;23.316;2024-03-06T12:12:01;14.30;47.67
65637;DHT22;52327;42.622;23.316;2024-03-06T12:14:28;14.48;46.54
65637;DHT22;52327;42.622;23.316;2024-03-06T12:16:58;14.59;46.05
65637;DHT22;52327;42.622;23.316;2024-03-06T12:19:33;14.84;47.03
65637;DHT22;52327;42.622;23.316;2024-03-06T12:22:04;15.23;46.31
65637;DHT22;52327;42.622;23.316;2024-03-06T12:24:30;15.59;45.79
65637;DHT22;52327;42.622;23.316;2024-03-06T12:27:04;15.96;44.03
65637;DHT22;52327;42.622;23.316;2024-03-06T12:29:30;16.26;43.32
65637;DHT22;52327;42.622;23.316;2024-03-06T12:31:57;16.42;43.13
65637;DHT22;52327;42.622;23.316;2024-03-06T12:34:26;16.11;43.58
65637;DHT22;52327;42.622;23.316;2024-03-06T12:36:51;15.98;44.23
65637;DHT22;52327;42.622;23.316;2024-03-06T12:39:17;16.01;44.77
65637;DHT22;52327;42.622;23.316;2024-03-06T12:41:51;15.87;45.32
65637;DHT22;52327;42.622;23.316;2024-03-06T12:44:19;15.84;45.00
65637;DHT22;52327;42.622;23.316;2024-03-06T12:46:44;15.54;44.05
65637;DHT22;52327;42.622;23.316;2024-03-06T12:49:10;15.59;45.75
65637;DHT22;52327;42.622;23.316;2024-03-06T12:51:35;15.53;45.33
65637;DHT22;52327;42.622;23.316;2024-03-06T12:54:01;15.60;45.94
65637;DHT22;52327;42.622;23.316;2024-03-06T12:56:28;15.79;44.13
65637;DHT22;52327;42.622;23.316;2024-03-06T12:58:54;15.87;44.18
65637;DHT22;52327;42.622;23.316;2024-03-06T13:01:19;16.08;43.84
65637;DHT22;52327;42.622;23.316;2024-03-06T13:03:45;16.26;42.20
65637;DHT22;52327;42.622;23.316;2024-03-06T13:06:10;15.33;45.54
65637;DHT22;52327;42.622;23.316;2024-03-06T13:08:36;15.25;47.75
65637;DHT22;52327;42.622;23.316;2024-03-06T13:11:01;14.93;47.96
65637;DHT22;52327;42.622;23.316;2024-03-06T13:13:28;14.67;49.51
65637;DHT22;52327;42.622;23.316;2024-03-06T13:15:55;14.96;49.17
65637;DHT22;52327;42.622;23.316;2024-03-06T13:18:21;14.80;49.76
65637;DHT22;52327;42.622;23.316;2024-03-06T13:20:47;14.72;49.93
65637;DHT22;52327;42.622;23.316;2024-03-06T13:23:12;14.63;49.65
65637;DHT22;52327;42.622;23.316;2024-03-06T13:25:38;14.47;50.63
65637;DHT22;52327;42.622;23.316;2024-03-06T13:28:04;14.33;51.03
65637;DHT22;52327;42.622;23.316;2024-03-06T13:30:30;14.21;51.52
65637;DHT22;52327;42.622;23.316;2024-03-06T13:32:55;14.21;51.32
65637;DHT22;52327;42.622;23.316;2024-03-06T13:35:21;14.20;51.82
65637;DHT22;52327;42.622;23.316;2024-03-06T13:37:46;14.30;51.60
65637;DHT22;52327;42.622;23.316;2024-03-06T13:40:13;14.09;51.32
65637;DHT22;52327;42.622;23.316;2024-03-06T13:42:42;13.95;52.17
65637;DHT22;52327;42.622;23.316;2024-03-06T13:45:09;14.05;52.13
65637;DHT22;52327;42.622;23.316;2024-03-06T13:47:38;14.00;51.79
65637;DHT22;52327;42.622;23.316;2024-03-06T13:50:16;14.00;52.74
65637;DHT22;52327;42.622;23.316;2024-03-06T13:52:42;14.00;53.31
65637;DHT22;52327;42.622;23.316;2024-03-06T13:55:09;13.79;52.44
65637;DHT22;52327;42.622;23.316;2024-03-06T13:57:36;13.04;53.21
65637;DHT22;52327;42.622;23.316;2024-03-06T14:00:09;12.88;54.31
65637;DHT22;52327;42.622;23.316;2024-03-06T14:02:42;12.45;54.68
65637;DHT22;52327;42.622;23.316;2024-03-06T14:05:08;12.42;55.30
65637;DHT22;52327;42.622;23.316;2024-03-06T14:07:34;12.60;56.21
65637;DHT22;52327;42.622;23.316;2024-03-06T14:10:00;12.84;55.54
65637;DHT22;52327;42.622;23.316;2024-03-06T14:12:25;12.91;55.01
65637;DHT22;52327;42.622;23.316;2024-03-06T14:14:51;13.10;53.01
65637;DHT22;52327;42.622;23.316;2024-03-06T14:17:16;13.08;53.67
65637;DHT22;52327;42.622;23.316;2024-03-06T14:19:41;13.08;53.77
65637;DHT22;52327;42.622;23.316;2024-03-06T14:22:08;12.97;54.20
65637;DHT22;52327;42.622;23.316;2024-03-06T14:24:34;13.01;54.28
65637;DHT22;52327;42.622;23.316;2024-03-06T14:26:59;12.84;56.21
65637;DHT22;52327;42.622;23.316;2024-03-06T14:29:24;12.97;55.52
65637;DHT22;52327;42.622;23.316;2024-03-06T14:31:52;12.76;56.66
65637;DHT22;52327;42.622;23.316;2024-03-06T14:34:17;12.64;56.95
65637;DHT22;52327;42.622;23.316;2024-03-06T14:36:42;12.67;58.45
65637;DHT22;52327;42.622;23.316;2024-03-06T14:39:08;12.21;60.74
65637;DHT22;52327;42.622;23.316;2024-03-06T14:41:36;11.65;66.71
65637;DHT22;52327;42.622;23.316;2024-03-06T14:44:01;11.24;65.43
65637;DHT22;52327;42.622;23.316;2024-03-06T14:46:27;10.68;68.18
65637;DHT22;52327;42.622;23.316;2024-03-06T14:48:54;10.44;69.26
65637;DHT22;52327;42.622;23.316;2024-03-06T14:51:19;10.22;71.01
65637;DHT22;52327;42.622;23.316;2024-03-06T14:53:45;10.14;73.04
65637;DHT22;52327;42.622;23.316;2024-03-06T14:56:10;10.12;74.81
65637;DHT22;52327;42.622;23.316;2024-03-06T14:58:36;9.93;76.40
65637;DHT22;52327;42.622;23.316;2024-03-06T15:01:04;9.81;76.55
65637;DHT22;52327;42.622;23.316;2024-03-06T15:03:30;9.70;79.34
65637;DHT22;52327;42.622;23.316;2024-03-06T15:05:55;9.54;80.08
65637;DHT22;52327;42.622;23.316;2024-03-06T15:08:21;9.56;81.01
65637;DHT22;52327;42.622;23.316;2024-03-06T15:10:46;9.60;83.03
65637;DHT22;52327;42.622;23.316;2024-03-06T15:13:11;9.63;81.98
65637;DHT22;52327;42.622;23.316;2024-03-06T15:15:38;9.60;83.94
65637;DHT22;52327;42.622;23.316;2024-03-06T15:18:05;9.59;84.02
65637;DHT22;52327;42.622;23.316;2024-03-06T15:20:30;9.61;85.23
65637;DHT22;52327;42.622;23.316;2024-03-06T15:22:58;9.69;84.97
65637;DHT22;52327;42.622;23.316;2024-03-06T15:25:24;9.71;85.85
65637;DHT22;52327;42.622;23.316;2024-03-06T15:27:49;9.71;85.51
65637;DHT22;52327;42.622;23.316;2024-03-06T15:30:15;9.76;85.54
65637;DHT22;52327;42.622;23.316;2024-03-06T15:32:41;9.77;84.85
65637;DHT22;52327;42.622;23.316;2024-03-06T15:35:07;9.80;84.65
65637;DHT22;52327;42.622;23.316;2024-03-06T15:37:33;9.77;83.86